Time;durP1;ratioP1;P1;durP2;ratioP2;P2;SDS_P1;SDS_P2;PMS_P1;PMS_P2;Temp;Humidity;BMP_temperature;BMP_pressure;BME280_temperature;BME280_humidity;BME280_pressure;Samples;Min_cycle;Max_cycle;Signal;HPM_P1;HPM_P2
2023/03/22 00:02:26;;;;;;;3.90;2.90;;;8.20;99.90;;;;;;6263657;28;20052;-78
2023/03/22 00:05:29;;;;;;;4.93;4.47;;;8.20;99.90;;;;;;6262771;28;20060;-78
2023/03/22 00:08:30;;;;;;;3.50;3.08;;;8.20;99.90;;;;;;6265288;28;20542;-77
2023/03/22 00:11:32;;;;;;;4.13;3.20;;;8.10;99.90;;;;;;6271823;28;20057;-77
2023/03/22 00:14:35;;;;;;;4.82;3.70;;;8.00;99.90;;;;;;6275730;28;20051;-77
2023/03/22 00:17:38;;;;;;;5.88;3.22;;;7.90;99.90;;;;;;6273387;28;20041;-77
2023/03/22 00:20:46;;;;;;;3.72;3.38;;;7.90;99.90;;;;;;6272198;28;20052;-76
2023/03/22 00:23:48;;;;;;;6.43;4.50;;;7.90;99.90;;;;;;6274291;28;20091;-77
2023/03/22 00:26:50;;;;;;;5.47;3.45;;;7.80;99.90;;;;;;6272919;28;20075;-77
2023/03/22 00:29:52;;;;;;;3.83;2.83;;;7.80;99.90;;;;;;6271433;28;20041;-77
2023/03/22 00:32:55;;;;;;;4.75;3.65;;;7.70;99.90;;;;;;6258570;28;20049;-77
2023/03/22 00:35:59;;;;;;;5.25;2.85;;;7.70;99.90;;;;;;6268328;28;20053;-77
2023/03/22 00:39:01;;;;;;;4.07;2.70;;;7.70;99.90;;;;;;6267235;28;20048;-77
2023/03/22 00:42:03;;;;;;;8.15;3.50;;;7.70;99.90;;;;;;6267481;28;20040;-77
2023/03/22 00:45:08;;;;;;;4.40;2.72;;;7.60;99.90;;;;;;6268518;28;20049;-77
2023/03/22 00:48:12;;;;;;;6.13;3.55;;;7.60;99.90;;;;;;6269223;28;20049;-77
2023/03/22 00:51:14;;;;;;;6.15;3.42;;;7.60;99.90;;;;;;6267983;28;20048;-77
2023/03/22 00:54:16;;;;;;;6.97;3.95;;;7.50;99.90;;;;;;6265540;28;20049;-77
2023/03/22 00:57:18;;;;;;;5.05;3.03;;;7.50;99.90;;;;;;6268284;28;20041;-77
2023/03/22 01:00:20;;;;;;;8.65;4.80;;;7.50;99.90;;;;;;6267423;28;20049;-77
2023/03/22 01:03:23;;;;;;;6.50;3.80;;;7.40;99.90;;;;;;6269008;28;20067;-76
2023/03/22 01:06:25;;;;;;;8.18;3.78;;;7.40;99.90;;;;;;6267608;28;20073;-77
2023/03/22 01:09:29;;;;;;;9.73;4.18;;;7.40;99.90;;;;;;6267570;28;20049;-77
2023/03/22 01:12:32;;;;;;;5.05;4.03;;;7.30;99.90;;;;;;6268280;28;20124;-77
2023/03/22 01:15:35;;;;;;;9.32;3.33;;;7.30;99.90;;;;;;6272162;28;20049;-76
2023/03/22 01:18:39;;;;;;;9.15;3.65;;;7.30;99.90;;;;;;6255220;28;20037;-77
2023/03/22 01:21:41;;;;;;;5.30;3.90;;;7.30;99.90;;;;;;6267333;28;20126;-78
2023/03/22 01:24:42;;;;;;;5.18;3.00;;;7.30;99.90;;;;;;6267096;28;20434;-78
2023/03/22 01:27:44;;;;;;;5.05;3.22;;;7.20;99.90;;;;;;6270309;28;20499;-76
2023/03/22 01:30:46;;;;;;;4.88;3.85;;;7.20;99.90;;;;;;6269442;28;20396;-76
2023/03/22 01:33:50;;;;;;;3.95;3.08;;;7.20;99.90;;;;;;6269027;28;20377;-77
2023/03/22 01:36:51;;;;;;;4.50;3.40;;;7.10;99.90;;;;;;6265714;28;20558;-76
2023/03/22 01:39:54;;;;;;;9.10;5.88;;;7.00;99.90;;;;;;6267239;28;20403;-76
2023/03/22 01:42:56;;;;;;;5.35;3.58;;;6.90;99.90;;;;;;6266804;28;20052;-77
2023/03/22 01:45:57;;;;;;;6.25;4.00;;;6.90;99.90;;;;;;6261389;28;20047;-76
2023/03/22 01:49:03;;;;;;;9.00;3.28;;;6.80;99.90;;;;;;6266222;28;20415;-77
2023/03/22 01:52:09;;;;;;;4.72;3.95;;;6.80;99.90;;;;;;6266128;28;20282;-76
2023/03/22 01:55:12;;;;;;;6.75;3.67;;;6.80;99.90;;;;;;6262212;28;20037;-76
2023/03/22 01:58:16;;;;;;;4.05;3.65;;;6.80;99.90;;;;;;6267479;28;20048;-77
2023/03/22 02:01:19;;;;;;;4.55;3.78;;;6.70;99.90;;;;;;6267299;28;20128;-76
2023/03/22 02:04:37;;;;;;;7.20;4.32;;;6.70;99.90;;;;;;6269353;28;20090;-76
2023/03/22 02:07:41;;;;;;;7.78;3.97;;;6.70;99.90;;;;;;6265337;28;20045;-77
2023/03/22 02:10:43;;;;;;;5.93;3.63;;;6.60;99.90;;;;;;6265070;28;20045;-76
2023/03/22 02:14:14;;;;;;;8.48;3.95;;;6.60;99.90;;;;;;6264897;28;20483;-77
2023/03/22 02:17:26;;;;;;;4.95;3.60;;;6.50;99.90;;;;;;6266055;28;20064;-76
2023/03/22 02:21:03;;;;;;;4.40;3.38;;;6.50;99.90;;;;;;6266809;28;20106;-77
2023/03/22 02:24:45;;;;;;;4.30;3.33;;;6.40;99.90;;;;;;6265002;28;20041;-77
2023/03/22 02:28:19;;;;;;;5.07;3.30;;;6.50;99.90;;;;;;6265584;28;20138;-77
2023/03/22 02:31:43;;;;;;;5.32;4.45;;;6.50;99.90;;;;;;6254321;28;20073;-77
2023/03/22 02:35:19;;;;;;;6.88;3.95;;;6.50;99.90;;;;;;6265058;28;20049;-77
2023/03/22 02:38:56;;;;;;;5.25;3.67;;;6.60;99.90;;;;;;6226711;28;20075;-76
2023/03/22 02:42:10;;;;;;;5.60;3.95;;;6.60;99.90;;;;;;6267578;28;20120;-77
2023/03/22 02:45:17;;;;;;;3.65;3.17;;;6.70;99.90;;;;;;6266471;28;20048;-77
2023/03/22 02:48:27;;;;;;;6.78;3.47;;;6.70;99.90;;;;;;6267240;28;20045;-77
2023/03/22 02:51:36;;;;;;;6.03;3.38;;;6.80;99.90;;;;;;6266298;28;20065;-77
2023/03/22 02:54:44;;;;;;;3.33;2.90;;;6.80;99.90;;;;;;6264377;28;20061;-77
2023/03/22 02:57:52;;;;;;;3.95;3.55;;;6.90;99.90;;;;;;6265249;28;20515;-77
2023/03/22 03:00:58;;;;;;;6.10;4.53;;;6.90;99.90;;;;;;6263551;28;20048;-77
2023/03/22 03:04:06;;;;;;;7.25;3.40;;;7.00;99.90;;;;;;6264480;28;20125;-77
2023/03/22 03:07:11;;;;;;;6.30;3.45;;;7.10;99.90;;;;;;6264811;28;20488;-77
2023/03/22 03:10:17;;;;;;;6.50;3.90;;;7.20;99.90;;;;;;6263697;28;20407;-77
2023/03/22 03:13:19;;;;;;;5.63;3.70;;;7.20;99.90;;;;;;6265803;28;20045;-76
2023/03/22 03:16:25;;;;;;;3.92;2.95;;;7.30;99.90;;;;;;6266092;28;20056;-77
2023/03/22 03:19:35;;;;;;;7.53;4.45;;;7.40;99.90;;;;;;6264531;28;20500;-77
2023/03/22 03:22:49;;;;;;;7.38;3.60;;;7.40;99.90;;;;;;6264615;28;20055;-77
2023/03/22 03:26:01;;;;;;;5.55;3.58;;;7.40;99.90;;;;;;6264999;28;20052;-77
2023/03/22 03:29:08;;;;;;;6.47;4.00;;;7.40;99.90;;;;;;6266362;28;20047;-77
2023/03/22 03:32:15;;;;;;;4.78;3.45;;;7.30;99.90;;;;;;6265983;28;20106;-77
2023/03/22 03:35:22;;;;;;;5.45;3.28;;;7.30;99.90;;;;;;6265264;28;20049;-77
2023/03/22 03:38:27;;;;;;;5.03;4.18;;;7.20;99.90;;;;;;6265396;28;20049;-77
2023/03/22 03:41:31;;;;;;;6.85;4.20;;;7.10;99.90;;;;;;6263258;28;20053;-76
2023/03/22 03:44:35;;;;;;;8.98;3.42;;;7.10;99.90;;;;;;6265778;28;20055;-77
2023/03/22 03:47:37;;;;;;;5.88;3.97;;;6.90;99.90;;;;;;6265709;28;20098;-77
2023/03/22 03:50:39;;;;;;;6.07;5.53;;;6.90;99.90;;;;;;6264772;28;20064;-77
2023/03/22 03:53:41;;;;;;;8.43;5.28;;;6.90;99.90;;;;;;6263058;28;20056;-77
2023/03/22 03:56:46;;;;;;;9.70;5.15;;;6.90;99.90;;;;;;6262352;28;20148;-77
2023/03/22 03:59:48;;;;;;;7.30;4.10;;;6.80;99.90;;;;;;6264942;28;20059;-77
2023/03/22 04:02:49;;;;;;;4.50;3.47;;;6.80;99.90;;;;;;6263244;28;20052;-77
2023/03/22 04:05:51;;;;;;;6.10;4.93;;;6.80;99.90;;;;;;6263083;28;20052;-77
2023/03/22 04:08:55;;;;;;;9.90;4.22;;;6.80;99.90;;;;;;6263956;28;20060;-77
2023/03/22 04:11:58;;;;;;;7.93;3.50;;;6.70;99.90;;;;;;6261244;28;20095;-76
2023/03/22 04:15:00;;;;;;;4.60;3.72;;;6.70;99.90;;;;;;6264801;28;20399;-77
2023/03/22 04:18:02;;;;;;;4.57;3.40;;;6.60;99.90;;;;;;6263012;28;20045;-76
2023/03/22 04:21:04;;;;;;;5.60;3.90;;;6.70;99.90;;;;;;6264841;28;20037;-76
2023/03/22 04:24:06;;;;;;;16.80;4.30;;;6.60;99.90;;;;;;6264130;28;20414;-77
2023/03/22 04:27:09;;;;;;;4.90;3.35;;;6.60;99.90;;;;;;6260030;28;20049;-77
2023/03/22 04:30:17;;;;;;;6.00;3.90;;;6.60;99.90;;;;;;6263534;28;20057;-77
2023/03/22 04:33:21;;;;;;;5.78;3.65;;;6.60;99.90;;;;;;6263375;28;20407;-76
2023/03/22 04:36:24;;;;;;;9.27;3.97;;;6.60;99.90;;;;;;6263230;28;20045;-76
2023/03/22 04:39:27;;;;;;;6.50;4.40;;;6.50;99.90;;;;;;6264209;28;20055;-76
2023/03/22 04:42:30;;;;;;;6.05;3.55;;;6.50;99.90;;;;;;6262393;28;20041;-77
2023/03/22 04:45:33;;;;;;;5.05;3.30;;;6.50;99.90;;;;;;6263531;28;20056;-76
2023/03/22 04:48:36;;;;;;;8.32;4.95;;;6.40;99.90;;;;;;6262161;28;20049;-76
2023/03/22 04:51:38;;;;;;;9.90;4.00;;;6.30;99.90;;;;;;6262773;28;20055;-77
2023/03/22 04:54:40;;;;;;;8.20;4.20;;;6.20;99.90;;;;;;6263262;28;20048;-77
2023/03/22 04:57:44;;;;;;;3.58;3.22;;;6.20;99.90;;;;;;6265024;28;20495;-78
2023/03/22 05:00:48;;;;;;;5.53;4.53;;;6.10;99.90;;;;;;6266331;28;20044;-79
2023/03/22 05:03:50;;;;;;;5.75;3.65;;;6.10;99.90;;;;;;6268394;28;20055;-78
2023/03/22 05:06:52;;;;;;;5.72;4.22;;;6.10;99.90;;;;;;6268583;28;20049;-78
2023/03/22 05:09:53;;;;;;;9.25;3.75;;;6.10;99.90;;;;;;6270611;28;20560;-78
2023/03/22 05:12:56;;;;;;;5.45;3.38;;;6.10;99.90;;;;;;6268135;28;20041;-78
2023/03/22 05:15:58;;;;;;;3.55;3.13;;;6.00;99.90;;;;;;6267832;28;20566;-78
2023/03/22 05:19:01;;;;;;;5.18;3.92;;;6.00;99.90;;;;;;6268887;28;20064;-78
2023/03/22 05:22:02;;;;;;;5.88;4.75;;;6.00;99.90;;;;;;6269231;28;20487;-78
2023/03/22 05:25:05;;;;;;;6.38;4.13;;;6.00;99.90;;;;;;6267817;28;20462;-78
2023/03/22 05:28:09;;;;;;;5.28;4.15;;;6.10;99.90;;;;;;6268627;28;20136;-79
2023/03/22 05:31:13;;;;;;;3.92;3.53;;;6.10;99.90;;;;;;6268013;28;20045;-78
2023/03/22 05:34:15;;;;;;;4.90;4.13;;;6.20;99.90;;;;;;6269890;28;20056;-78
2023/03/22 05:37:20;;;;;;;4.25;3.85;;;6.20;99.90;;;;;;6268679;28;20399;-78
2023/03/22 05:40:21;;;;;;;4.60;4.05;;;6.30;99.90;;;;;;6270019;28;20045;-78
2023/03/22 05:43:24;;;;;;;4.93;4.32;;;6.30;99.90;;;;;;6268698;28;20044;-78
2023/03/22 05:46:26;;;;;;;5.65;4.03;;;6.50;99.90;;;;;;6267583;28;20056;-78
2023/03/22 05:49:28;;;;;;;7.20;4.22;;;6.60;99.90;;;;;;6267724;28;20040;-78
2023/03/22 05:52:29;;;;;;;4.00;2.90;;;6.70;99.90;;;;;;6267581;28;20045;-77
2023/03/22 05:55:31;;;;;;;5.75;4.55;;;6.80;99.90;;;;;;6267055;28;20049;-78
2023/03/22 05:58:34;;;;;;;3.75;3.45;;;6.90;99.90;;;;;;6265691;28;20056;-78
2023/03/22 06:01:38;;;;;;;5.53;3.30;;;7.00;99.90;;;;;;6266977;28;20056;-78
2023/03/22 06:04:40;;;;;;;6.53;4.25;;;7.20;99.90;;;;;;6267676;28;20056;-77
2023/03/22 06:07:42;;;;;;;4.45;4.05;;;7.30;99.90;;;;;;6267328;28;20077;-78
2023/03/22 06:10:43;;;;;;;7.05;3.55;;;7.50;99.90;;;;;;6266660;28;20521;-78
2023/03/22 06:13:46;;;;;;;10.55;4.13;;;7.60;99.90;;;;;;6271239;28;20036;-78
2023/03/22 06:16:48;;;;;;;4.20;3.63;;;7.80;99.90;;;;;;6265703;28;20553;-78
2023/03/22 06:19:50;;;;;;;7.38;4.28;;;8.00;99.90;;;;;;6271946;28;20044;-78
2023/03/22 06:22:52;;;;;;;5.07;4.47;;;8.20;99.90;;;;;;6272033;28;20047;-78
2023/03/22 06:25:54;;;;;;;6.15;5.07;;;8.40;99.90;;;;;;6273570;28;20037;-78
2023/03/22 06:28:57;;;;;;;6.28;4.30;;;8.60;99.90;;;;;;6274221;28;20419;-79
2023/03/22 06:31:58;;;;;;;6.55;3.88;;;8.90;99.90;;;;;;6272219;28;20057;-79
2023/03/22 06:35:00;;;;;;;9.15;5.10;;;9.10;99.90;;;;;;6271689;28;20049;-78
2023/03/22 06:38:02;;;;;;;5.05;4.55;;;9.40;99.90;;;;;;6271855;28;20755;-78
2023/03/22 06:41:04;;;;;;;4.97;2.90;;;9.50;99.90;;;;;;6268553;28;20040;-78
2023/03/22 06:44:07;;;;;;;6.20;3.63;;;9.60;99.90;;;;;;6270235;28;20049;-80
2023/03/22 06:47:09;;;;;;;5.70;3.20;;;9.70;99.90;;;;;;6269859;28;20056;-79
2023/03/22 06:50:11;;;;;;;6.47;3.50;;;9.80;99.90;;;;;;6271857;28;20045;-78
2023/03/22 06:53:12;;;;;;;4.35;3.95;;;10.00;99.90;;;;;;6270873;28;20072;-79
2023/03/22 06:56:14;;;;;;;5.70;3.70;;;10.10;99.90;;;;;;6271861;28;20049;-79
2023/03/22 06:59:17;;;;;;;4.07;3.67;;;10.30;99.90;;;;;;6267448;28;20040;-79
2023/03/22 07:02:19;;;;;;;3.72;3.40;;;10.40;99.90;;;;;;6273016;28;20163;-79
2023/03/22 07:05:22;;;;;;;4.13;3.55;;;10.60;99.90;;;;;;6225156;28;20041;-80
2023/03/22 07:08:24;;;;;;;5.93;4.22;;;10.90;99.90;;;;;;6276917;28;20048;-79
2023/03/22 07:11:27;;;;;;;3.90;3.20;;;11.20;99.90;;;;;;6281256;28;20053;-80
2023/03/22 07:14:30;;;;;;;4.70;3.78;;;11.50;99.90;;;;;;6279344;28;20059;-79
2023/03/22 07:17:34;;;;;;;5.10;3.40;;;11.90;99.90;;;;;;6276050;28;20507;-80
2023/03/22 07:20:39;;;;;;;4.68;2.90;;;12.20;99.90;;;;;;6272248;28;20096;-80
2023/03/22 07:31:30;;;;;;;6.70;4.70;;;13.50;99.90;;;;;;6231911;28;20060;-79
2023/03/22 07:34:32;;;;;;;3.40;2.83;;;13.90;99.90;;;;;;6263841;28;20037;-79
2023/03/22 07:37:33;;;;;;;6.90;2.58;;;14.20;99.90;;;;;;6264211;28;20044;-80
2023/03/22 07:40:36;;;;;;;3.75;2.33;;;14.50;99.90;;;;;;6263783;28;20064;-79
2023/03/22 07:43:38;;;;;;;2.88;2.47;;;14.90;99.90;;;;;;6264251;28;20041;-80
2023/03/22 07:46:41;;;;;;;3.28;2.65;;;15.40;99.90;;;;;;6265358;28;20037;-80
2023/03/22 07:49:42;;;;;;;2.80;1.98;;;16.00;99.90;;;;;;6267107;28;20044;-80
2023/03/22 07:52:45;;;;;;;4.60;2.80;;;16.90;99.90;;;;;;6266583;28;20049;-81
2023/03/22 07:55:47;;;;;;;2.63;1.80;;;17.60;99.90;;;;;;6267597;28;20056;-81
2023/03/22 07:58:49;;;;;;;4.22;1.98;;;18.30;99.90;;;;;;6266775;28;20045;-80
2023/03/22 08:01:52;;;;;;;4.22;2.50;;;18.90;98.30;;;;;;6265393;28;20056;-80
2023/03/22 08:04:54;;;;;;;5.85;1.80;;;19.50;95.90;;;;;;6264843;28;20052;-78
2023/03/22 08:07:55;;;;;;;2.72;1.77;;;19.60;94.80;;;;;;6266924;28;20063;-79
2023/03/22 08:10:57;;;;;;;1.85;1.67;;;20.00;93.70;;;;;;6266495;28;20089;-80
2023/03/22 08:13:59;;;;;;;2.75;1.73;;;20.30;90.90;;;;;;6264346;28;20052;-80
2023/03/22 08:17:02;;;;;;;3.83;2.15;;;20.00;89.80;;;;;;6266805;28;20053;-79
2023/03/22 08:20:07;;;;;;;3.78;1.85;;;19.70;87.80;;;;;;6265604;28;20049;-79
2023/03/22 08:23:13;;;;;;;3.63;1.50;;;19.30;87.60;;;;;;6264462;28;20499;-79
2023/03/22 08:26:15;;;;;;;4.80;2.10;;;19.20;87.30;;;;;;6263903;28;20132;-80
2023/03/22 08:29:17;;;;;;;2.75;2.05;;;19.00;85.90;;;;;;6264189;28;20407;-79
2023/03/22 08:32:20;;;;;;;3.15;1.40;;;18.70;85.50;;;;;;6268313;28;20051;-79
2023/03/22 08:35:22;;;;;;;3.13;1.25;;;18.50;85.30;;;;;;6267876;28;20574;-79
2023/03/22 08:38:24;;;;;;;3.30;1.92;;;18.40;85.30;;;;;;6268776;28;20144;-81
2023/03/22 08:41:25;;;;;;;2.55;1.38;;;18.60;85.40;;;;;;6268095;28;20131;-80
2023/03/22 08:44:27;;;;;;;2.00;1.45;;;19.30;84.60;;;;;;6265796;28;20064;-78
2023/03/22 08:47:33;;;;;;;2.75;1.70;;;19.60;82.80;;;;;;6270189;28;20068;-80
2023/03/22 08:50:35;;;;;;;3.85;2.20;;;19.70;81.40;;;;;;6266101;28;20496;-79
2023/03/22 08:53:36;;;;;;;2.90;1.15;;;19.90;81.80;;;;;;6264421;28;20037;-79
2023/03/22 08:56:38;;;;;;;5.07;1.80;;;20.20;80.50;;;;;;6265480;28;20060;-78
2023/03/22 08:59:40;;;;;;;1.42;1.17;;;20.40;79.00;;;;;;6264961;28;20053;-78
2023/03/22 09:02:43;;;;;;;1.55;1.33;;;20.10;78.10;;;;;;6264319;28;20053;-80
2023/03/22 09:05:45;;;;;;;2.75;1.27;;;20.30;77.80;;;;;;6263884;28;20112;-81
2023/03/22 09:08:50;;;;;;;1.10;1.00;;;20.40;77.20;;;;;;6265253;28;20052;-79
2023/03/22 09:11:52;;;;;;;3.60;1.50;;;20.30;76.80;;;;;;6267141;28;20053;-79
2023/03/22 09:14:54;;;;;;;1.77;1.20;;;20.40;76.70;;;;;;6257164;28;20041;-79
2023/03/22 09:17:57;;;;;;;1.52;1.00;;;20.30;75.60;;;;;;6263326;28;20124;-79
2023/03/22 09:20:59;;;;;;;1.15;0.90;;;19.70;75.70;;;;;;6262761;28;20053;-78
2023/03/22 09:24:01;;;;;;;1.23;0.80;;;19.40;76.70;;;;;;6262655;28;20052;-79
2023/03/22 09:27:04;;;;;;;0.82;0.82;;;19.60;77.50;;;;;;6263951;28;20037;-78
2023/03/22 09:30:06;;;;;;;1.27;0.75;;;20.00;76.70;;;;;;6263047;28;20041;-78
2023/03/22 09:33:10;;;;;;;1.58;0.88;;;20.40;76.10;;;;;;6263256;28;20075;-79
2023/03/22 09:36:12;;;;;;;3.20;1.00;;;20.80;75.30;;;;;;6265844;28;20056;-79
2023/03/22 09:39:15;;;;;;;1.25;0.82;;;20.70;74.00;;;;;;6262723;28;20406;-79
2023/03/22 09:42:31;;;;;;;3.50;0.70;;;20.20;73.90;;;;;;6264518;28;20056;-79
2023/03/22 09:45:38;;;;;;;1.63;0.65;;;19.80;73.50;;;;;;6262619;28;20049;-80
2023/03/22 09:48:43;;;;;;;0.73;0.60;;;19.70;75.00;;;;;;6264847;28;20061;-79
2023/03/22 09:51:47;;;;;;;1.13;0.80;;;19.70;74.30;;;;;;6265092;28;20116;-80
2023/03/22 09:54:49;;;;;;;0.70;0.70;;;19.90;74.60;;;;;;6263467;28;20036;-79
2023/03/22 09:58:00;;;;;;;2.70;0.90;;;20.00;73.80;;;;;;6263138;28;20049;-79
2023/03/22 10:01:06;;;;;;;0.40;0.40;;;20.00;72.80;;;;;;6261568;28;20049;-79
2023/03/22 10:04:29;;;;;;;1.05;0.60;;;19.60;72.60;;;;;;6262809;28;20052;-79
2023/03/22 10:07:37;;;;;;;2.10;0.47;;;19.50;73.70;;;;;;6260676;28;20119;-78
2023/03/22 10:10:41;;;;;;;1.35;1.08;;;19.50;73.20;;;;;;6261802;28;20044;-79
2023/03/22 10:13:51;;;;;;;1.42;0.85;;;19.60;73.10;;;;;;6261722;28;20118;-78
2023/03/22 10:16:56;;;;;;;2.45;1.10;;;19.80;72.50;;;;;;6259902;28;20038;-78
2023/03/22 10:20:55;;;;;;;3.10;1.00;;;19.90;72.90;;;;;;6264763;28;20399;-78
2023/03/22 10:28:17;;;;;;;1.25;1.15;;;20.60;72.40;;;;;;6219980;28;20052;-80
2023/03/22 10:31:25;;;;;;;2.30;0.70;;;20.90;71.50;;;;;;6249210;28;20041;-79
2023/03/22 10:34:46;;;;;;;1.38;0.80;;;21.10;69.20;;;;;;6257148;28;20114;-79
2023/03/22 10:38:10;;;;;;;0.98;0.80;;;20.90;69.40;;;;;;6256309;28;20044;-78
2023/03/22 10:41:17;;;;;;;1.10;0.80;;;20.90;69.30;;;;;;6262545;28;20056;-80
2023/03/22 10:44:35;;;;;;;0.83;0.83;;;20.70;69.70;;;;;;6268213;28;20515;-80
2023/03/22 11:03:05;;;;;;;1.48;0.68;;;20.80;68.90;;;;;;6265375;28;20070;-79
2023/03/22 11:13:35;;;;;;;2.60;1.30;;;21.90;66.90;;;;;;6292257;28;20056;-82
2023/03/22 11:16:44;;;;;;;0.80;0.70;;;22.00;66.80;;;;;;6295755;28;20044;-78
2023/03/22 11:19:54;;;;;;;1.67;0.40;;;22.20;66.10;;;;;;6297426;28;20052;-79
2023/03/22 11:23:03;;;;;;;3.60;1.33;;;22.20;65.60;;;;;;6296630;28;20085;-79
2023/03/22 11:26:09;;;;;;;0.73;0.50;;;22.30;65.60;;;;;;6299763;28;20040;-79
2023/03/22 11:29:16;;;;;;;3.03;0.50;;;22.60;64.40;;;;;;6300180;28;20052;-79
2023/03/22 11:32:27;;;;;;;0.70;0.70;;;22.50;63.40;;;;;;6297333;28;23244;-81
2023/03/22 11:35:31;;;;;;;0.52;0.40;;;22.40;63.60;;;;;;6291443;28;20048;-78
2023/03/22 11:38:37;;;;;;;6.90;1.60;;;22.60;63.50;;;;;;6285058;28;20422;-80
2023/03/22 11:41:40;;;;;;;0.40;0.30;;;22.90;63.60;;;;;;6292881;28;20236;-79
2023/03/22 11:44:44;;;;;;;1.73;0.60;;;23.20;62.30;;;;;;6288312;28;20102;-79
2023/03/22 11:47:45;;;;;;;3.03;0.82;;;22.90;60.60;;;;;;6292326;28;20483;-78
2023/03/22 11:50:51;;;;;;;1.27;1.02;;;22.50;61.70;;;;;;6287432;28;20037;-77
2023/03/22 11:53:57;;;;;;;3.67;0.95;;;22.30;60.90;;;;;;6290177;28;20049;-79
2023/03/22 11:57:03;;;;;;;0.82;0.70;;;22.20;61.80;;;;;;6288221;28;20044;-78
2023/03/22 12:00:13;;;;;;;6.85;0.95;;;22.30;61.60;;;;;;6285820;28;20052;-81
2023/03/22 12:03:17;;;;;;;2.47;0.50;;;22.30;61.00;;;;;;6287538;28;20060;-77
2023/03/22 12:06:24;;;;;;;2.70;0.80;;;22.40;60.70;;;;;;6287125;28;21392;-78
2023/03/22 12:09:35;;;;;;;1.23;0.52;;;22.40;59.60;;;;;;6293292;28;20067;-78
2023/03/22 12:12:40;;;;;;;0.50;0.50;;;22.60;59.70;;;;;;6291603;28;20048;-80
2023/03/22 12:15:47;;;;;;;0.73;0.60;;;22.50;59.00;;;;;;6296797;28;20063;-79
2023/03/22 12:18:56;;;;;;;0.45;0.45;;;22.60;59.30;;;;;;6295076;28;20127;-80
2023/03/22 12:22:00;;;;;;;0.82;0.35;;;22.60;59.00;;;;;;6297682;28;20410;-80
2023/03/22 12:25:02;;;;;;;0.90;0.50;;;23.00;58.80;;;;;;6292680;28;20051;-77
2023/03/22 12:28:08;;;;;;;2.55;0.88;;;23.20;58.60;;;;;;6291683;28;20134;-80
2023/03/22 12:31:15;;;;;;;1.13;0.77;;;23.40;58.00;;;;;;6288894;28;20037;-79
2023/03/22 12:34:21;;;;;;;1.43;1.07;;;23.50;57.40;;;;;;6289761;28;20040;-79
2023/03/22 12:37:29;;;;;;;2.10;0.52;;;23.30;56.90;;;;;;6291931;28;20048;-77
2023/03/22 12:40:35;;;;;;;2.40;0.80;;;22.90;56.90;;;;;;6291308;28;20174;-79
2023/03/22 12:43:48;;;;;;;0.75;0.70;;;23.00;58.40;;;;;;6294712;28;20411;-80
2023/03/22 12:46:56;;;;;;;2.10;0.75;;;23.40;57.90;;;;;;6293032;28;20047;-78
2023/03/22 12:50:04;;;;;;;2.70;0.60;;;23.00;57.20;;;;;;6290307;28;20495;-78
2023/03/22 12:53:10;;;;;;;;;;;23.30;57.90;;;;;;6292327;28;20410;-78
2023/03/22 12:56:17;;;;;;;1.80;1.20;;;23.30;56.70;;;;;;6294017;28;20374;-79
2023/03/22 12:59:22;;;;;;;2.95;1.13;;;23.60;56.90;;;;;;6291618;28;20047;-79
2023/03/22 13:02:28;;;;;;;1.83;1.10;;;23.60;56.10;;;;;;6292269;28;20576;-77
2023/03/22 13:09:17;;;;;;;1.15;0.80;;;23.30;56.90;;;;;;6259492;28;20063;-77
2023/03/22 13:12:33;;;;;;;1.52;1.35;;;23.00;56.70;;;;;;6291383;28;20072;-77
2023/03/22 13:15:35;;;;;;;1.48;1.10;;;22.50;57.40;;;;;;6293942;28;20068;-77
2023/03/22 13:18:56;;;;;;;3.80;1.13;;;22.30;57.90;;;;;;6291720;28;20052;-78
2023/03/22 13:22:27;;;;;;;0.50;0.50;;;22.20;57.90;;;;;;6298698;28;20502;-77
2023/03/22 13:25:37;;;;;;;0.75;0.50;;;22.10;58.50;;;;;;6293741;28;20044;-78
2023/03/22 13:28:39;;;;;;;1.95;1.35;;;22.30;58.30;;;;;;6300964;28;20063;-78
2023/03/22 13:31:44;;;;;;;9.32;0.85;;;22.40;57.10;;;;;;6293165;28;20120;-78
2023/03/22 13:34:49;;;;;;;1.83;1.73;;;22.30;57.40;;;;;;6293785;28;20067;-78
2023/03/22 13:37:52;;;;;;;3.63;0.80;;;22.30;57.50;;;;;;6293423;28;20044;-78
2023/03/22 13:41:00;;;;;;;1.58;0.98;;;22.40;57.40;;;;;;6293024;28;20112;-78
2023/03/22 13:44:03;;;;;;;0.82;0.65;;;22.30;57.10;;;;;;6293726;28;20491;-78
2023/03/22 13:47:08;;;;;;;0.88;0.70;;;22.10;57.70;;;;;;6250338;28;20049;-78
2023/03/22 13:50:16;;;;;;;0.85;0.80;;;21.90;58.00;;;;;;6292390;28;20059;-78
2023/03/22 13:53:24;;;;;;;3.28;2.10;;;21.70;58.00;;;;;;6291115;28;20052;-78
2023/03/22 13:56:51;;;;;;;2.17;0.85;;;21.50;58.50;;;;;;6292370;28;20071;-77
2023/03/22 14:00:00;;;;;;;0.63;0.60;;;21.60;58.70;;;;;;6294595;28;20440;-78
2023/03/22 14:03:06;;;;;;;1.88;1.77;;;21.50;58.50;;;;;;6291325;28;20040;-78
2023/03/22 14:06:14;;;;;;;1.13;0.68;;;21.70;58.50;;;;;;6291669;28;20052;-76
2023/03/22 14:09:25;;;;;;;2.10;1.98;;;21.90;57.50;;;;;;6295806;28;20056;-78
2023/03/22 14:12:42;;;;;;;1.50;0.70;;;21.80;56.90;;;;;;6293452;28;20119;-78
2023/03/22 14:15:49;;;;;;;2.22;1.02;;;21.90;57.00;;;;;;6292789;28;20125;-77
2023/03/22 14:19:01;;;;;;;6.57;5.97;;;22.10;56.40;;;;;;6293228;28;20387;-79
2023/03/22 14:22:07;;;;;;;1.90;1.40;;;22.30;56.50;;;;;;6293567;28;20511;-78
2023/03/22 14:25:13;;;;;;;0.80;0.77;;;22.60;56.20;;;;;;6287037;28;20467;-77
2023/03/22 14:28:20;;;;;;;0.50;0.40;;;22.90;55.60;;;;;;6291435;28;20055;-76
2023/03/22 14:31:25;;;;;;;1.85;1.45;;;23.00;54.90;;;;;;6291047;28;20044;-77
2023/03/22 14:34:33;;;;;;;3.33;2.10;;;23.00;54.80;;;;;;6289648;28;20056;-77
2023/03/22 14:37:35;;;;;;;0.80;0.70;;;22.80;54.30;;;;;;6288947;28;20503;-77
2023/03/22 14:40:38;;;;;;;2.65;1.98;;;22.50;53.40;;;;;;6289316;28;20048;-77
2023/03/22 14:43:43;;;;;;;0.88;0.70;;;22.30;53.70;;;;;;6293252;28;20063;-78
2023/03/22 14:46:44;;;;;;;6.97;5.95;;;22.20;52.50;;;;;;6289879;28;20076;-78
2023/03/22 14:49:50;;;;;;;6.55;5.95;;;22.10;52.10;;;;;;6288905;28;20118;-77
2023/03/22 14:52:52;;;;;;;0.88;0.80;;;21.90;51.80;;;;;;6289194;28;20052;-77
2023/03/22 14:55:55;;;;;;;2.33;1.15;;;21.80;51.60;;;;;;6290818;28;20601;-78
2023/03/22 14:59:01;;;;;;;1.35;0.90;;;22.00;52.20;;;;;;6290457;28;20041;-76
2023/03/22 15:02:14;;;;;;;1.83;0.75;;;22.00;51.60;;;;;;6291012;28;20056;-77
2023/03/22 15:05:33;;;;;;;1.15;0.98;;;21.90;50.70;;;;;;6295702;28;20036;-81
2023/03/22 15:08:34;;;;;;;1.13;1.02;;;21.90;51.20;;;;;;6295462;28;20052;-78
2023/03/22 15:11:45;;;;;;;1.20;0.77;;;21.80;52.10;;;;;;6292220;28;20040;-78
2023/03/22 15:14:59;;;;;;;0.88;0.85;;;21.80;53.20;;;;;;6291668;28;20079;-78
2023/03/22 15:18:23;;;;;;;1.77;1.05;;;21.70;53.80;;;;;;6290416;28;20055;-79
2023/03/22 15:21:28;;;;;;;1.63;1.27;;;21.70;53.90;;;;;;6243726;28;20047;-78
2023/03/22 15:24:37;;;;;;;3.55;1.25;;;21.60;54.00;;;;;;6229380;28;20044;-78
2023/03/22 15:27:39;;;;;;;0.88;0.88;;;21.60;54.40;;;;;;6243364;28;20059;-78
2023/03/22 15:30:47;;;;;;;1.38;1.10;;;21.60;54.40;;;;;;6290549;28;20044;-78
2023/03/22 15:33:51;;;;;;;2.00;0.93;;;21.50;54.20;;;;;;6293038;28;20512;-78
2023/03/22 15:36:57;;;;;;;5.22;1.38;;;21.50;54.40;;;;;;6292049;28;20040;-78
2023/03/22 15:40:00;;;;;;;1.58;0.75;;;21.40;54.40;;;;;;6292916;28;20060;-81
2023/03/22 15:43:15;;;;;;;1.50;0.77;;;21.40;54.80;;;;;;6292242;28;20049;-80
2023/03/22 15:46:20;;;;;;;1.73;0.82;;;21.30;54.70;;;;;;6296027;28;20051;-81
2023/03/22 15:49:45;;;;;;;0.95;0.85;;;21.20;54.80;;;;;;6293984;28;20044;-79
2023/03/22 15:52:51;;;;;;;2.05;0.95;;;21.10;54.90;;;;;;6293052;28;20170;-79
2023/03/22 15:55:53;;;;;;;2.30;0.85;;;21.00;55.10;;;;;;6290869;28;20044;-80
2023/03/22 15:58:57;;;;;;;1.00;0.68;;;20.80;55.10;;;;;;6290619;28;20383;-80
2023/03/22 16:02:01;;;;;;;2.83;1.30;;;20.80;55.30;;;;;;6275457;28;20055;-80
2023/03/22 16:05:11;;;;;;;1.50;1.20;;;20.70;55.20;;;;;;6290588;28;20155;-80
2023/03/22 16:08:18;;;;;;;1.17;0.95;;;20.60;54.80;;;;;;6289573;28;20049;-80
2023/03/22 16:11:24;;;;;;;1.80;1.33;;;20.50;55.40;;;;;;6290644;28;20075;-80
2023/03/22 16:14:26;;;;;;;1.00;0.90;;;20.50;55.10;;;;;;6293225;28;20036;-81
2023/03/22 16:17:31;;;;;;;3.72;3.25;;;20.40;55.30;;;;;;6292048;28;20048;-81
2023/03/22 16:20:33;;;;;;;1.13;1.02;;;20.40;55.60;;;;;;6292062;28;20049;-81
2023/03/22 16:23:40;;;;;;;1.30;1.20;;;20.40;55.80;;;;;;6288296;28;20426;-80
2023/03/22 16:26:43;;;;;;;1.33;0.75;;;20.40;55.50;;;;;;6292217;28;20053;-80
2023/03/22 16:29:45;;;;;;;6.03;1.92;;;20.30;55.00;;;;;;6292400;28;20513;-80
2023/03/22 16:32:48;;;;;;;1.30;0.70;;;20.30;54.80;;;;;;6292396;28;20056;-79
2023/03/22 16:35:51;;;;;;;2.47;0.93;;;20.20;54.90;;;;;;6294161;28;20058;-82
2023/03/22 16:38:53;;;;;;;1.98;1.10;;;20.20;54.80;;;;;;6298146;28;20106;-81
2023/03/22 16:41:55;;;;;;;1.10;0.90;;;20.20;55.00;;;;;;6293374;28;20414;-81
2023/03/22 16:44:56;;;;;;;0.80;0.80;;;20.10;55.20;;;;;;6295147;28;20048;-82
2023/03/22 16:48:00;;;;;;;2.25;1.17;;;20.10;55.30;;;;;;6295210;28;20070;-80
2023/03/22 16:51:01;;;;;;;1.15;1.02;;;19.90;55.70;;;;;;6294238;28;20051;-82